createdAt,value
2023-02-19T00:01:13.740Z,100605.09
2023-02-19T00:03:40.677Z,100620.03
2023-02-19T00:06:09.353Z,100612.75
2023-02-19T00:08:36.756Z,100608.34
2023-02-19T00:11:08.316Z,100617.09
2023-02-19T00:13:42.681Z,100628.72
2023-02-19T00:16:14.776Z,100614.31
2023-02-19T00:18:42.019Z,100611.94
2023-02-19T00:21:09.241Z,100625.78
2023-02-19T00:23:36.243Z,100620.78
2023-02-19T00:26:18.164Z,100639.97
2023-02-19T00:28:46.415Z,100640.69
2023-02-19T00:31:15.992Z,100619.66
2023-02-19T00:33:42.833Z,100625.31
2023-02-19T00:36:09.691Z,100622.59
2023-02-19T00:38:37.018Z,100631.13
2023-02-19T00:41:19.263Z,100628.81
2023-02-19T00:43:52.635Z,100644.59
2023-02-19T00:46:26.380Z,100632.88
2023-02-19T00:48:53.333Z,100628.63
2023-02-19T00:51:20.956Z,100627.59
2023-02-19T00:53:47.816Z,100636.63
2023-02-19T00:56:14.597Z,100635.09
2023-02-19T00:58:41.418Z,100638.41
2023-02-19T01:01:09.086Z,100631.88
2023-02-19T01:03:36.379Z,100644.31
2023-02-19T01:06:03.783Z,100637.50
2023-02-19T01:08:33.585Z,100626.78
2023-02-19T01:11:00.822Z,100634.97
2023-02-19T01:13:28.441Z,100635.09
2023-02-19T01:16:03.538Z,100625.19
2023-02-19T01:18:30.960Z,100620.88
2023-02-19T01:20:57.759Z,100618.38
2023-02-19T01:23:24.540Z,100630.00
2023-02-19T01:25:51.341Z,100610.63
2023-02-19T01:28:18.120Z,100621.88
2023-02-19T01:30:44.890Z,100627.59
2023-02-19T01:33:11.766Z,100625.75
2023-02-19T01:35:39.018Z,100631.91
2023-02-19T01:38:07.530Z,100628.13
2023-02-19T01:40:34.660Z,100630.97
2023-02-19T01:43:01.490Z,100634.91
2023-02-19T01:45:28.990Z,100638.00
2023-02-19T01:48:04.642Z,100624.25
2023-02-19T01:50:33.214Z,100639.28
2023-02-19T01:53:00.423Z,100618.56
2023-02-19T01:55:27.226Z,100629.44
2023-02-19T01:57:54.172Z,100629.25
2023-02-19T02:00:21.051Z,100629.06
2023-02-19T02:02:49.895Z,100625.03
2023-02-19T02:05:45.443Z,100634.53
2023-02-19T02:08:31.586Z,100630.56
2023-02-19T02:10:58.483Z,100629.94
2023-02-19T02:13:25.314Z,100628.28
2023-02-19T02:16:00.492Z,100623.19
2023-02-19T02:18:52.887Z,100634.09
2023-02-19T02:21:57.167Z,100626.16
2023-02-19T02:24:45.590Z,100626.03
2023-02-19T02:27:30.849Z,100636.94
2023-02-19T02:30:03.540Z,100652.91
2023-02-19T02:32:59.604Z,100645.66
2023-02-19T02:35:28.680Z,100617.38
2023-02-19T02:37:57.237Z,100614.59
2023-02-19T02:40:24.040Z,100574.41
2023-02-19T02:42:50.837Z,100609.13
2023-02-19T02:45:35.293Z,100601.34
2023-02-19T02:48:08.191Z,100597.75
2023-02-19T02:50:42.038Z,100613.78
2023-02-19T02:53:30.566Z,100596.91
2023-02-19T02:55:57.774Z,100612.69
2023-02-19T02:58:24.834Z,100598.47
2023-02-19T03:01:13.676Z,100612.88
2023-02-19T03:03:41.516Z,100603.84
2023-02-19T03:06:08.348Z,100619.28
2023-02-19T03:08:37.294Z,100626.00
2023-02-19T03:11:29.157Z,100615.13
2023-02-19T03:14:28.051Z,100613.59
2023-02-19T03:17:15.687Z,100621.34
2023-02-19T03:19:43.705Z,100611.06
2023-02-19T03:22:20.120Z,100599.53
2023-02-19T03:25:13.477Z,100619.50
2023-02-19T03:27:41.206Z,100604.88
2023-02-19T03:30:17.246Z,100614.03
2023-02-19T03:32:53.471Z,100610.34
2023-02-19T03:35:24.912Z,100629.41
2023-02-19T03:38:09.375Z,100629.25
2023-02-19T03:40:42.305Z,100614.94
2023-02-19T03:43:41.428Z,100636.38
2023-02-19T03:46:37.072Z,100641.34
2023-02-19T03:49:06.802Z,100619.03
2023-02-19T03:51:54.335Z,100633.53
2023-02-19T03:54:32.139Z,100632.22
2023-02-19T03:57:32.463Z,100624.00
2023-02-19T04:00:02.285Z,100636.56
2023-02-19T04:02:50.352Z,100638.41
2023-02-19T04:05:19.218Z,100632.50
2023-02-19T04:07:47.160Z,100607.22
2023-02-19T04:10:14.185Z,100624.00
2023-02-19T04:12:42.132Z,100624.66
2023-02-19T04:15:13.700Z,100630.59
2023-02-19T04:17:46.250Z,100630.66
2023-02-19T04:20:13.048Z,100624.94
2023-02-19T04:22:39.944Z,100620.69
2023-02-19T04:25:06.966Z,100612.47
2023-02-19T04:27:39.221Z,100613.22
2023-02-19T04:30:08.184Z,100598.19
2023-02-19T04:32:34.999Z,100608.81
2023-02-19T04:35:01.805Z,100598.06
2023-02-19T04:37:28.578Z,100598.19
2023-02-19T04:39:55.366Z,100607.69
2023-02-19T04:42:22.136Z,100604.06
2023-02-19T04:44:48.942Z,100613.38
2023-02-19T04:47:18.401Z,100618.53
2023-02-19T04:49:45.582Z,100604.50
2023-02-19T04:52:12.371Z,100612.19
2023-02-19T04:54:39.172Z,100599.06
2023-02-19T04:57:06.113Z,100600.09
2023-02-19T04:59:32.974Z,100595.75
2023-02-19T05:01:59.785Z,100598.34
2023-02-19T05:04:26.723Z,100622.75
2023-02-19T05:06:53.566Z,100613.53
2023-02-19T05:09:20.340Z,100606.16
2023-02-19T05:11:47.173Z,100608.84
2023-02-19T05:14:13.980Z,100618.97
2023-02-19T05:16:40.794Z,100620.91
2023-02-19T05:19:07.610Z,100618.31
2023-02-19T05:21:34.481Z,100624.97
2023-02-19T05:24:01.278Z,100612.06
2023-02-19T05:26:28.735Z,100634.50
2023-02-19T05:28:55.512Z,100606.25
2023-02-19T05:31:22.485Z,100631.75
2023-02-19T05:33:51.508Z,100634.88
2023-02-19T05:36:19.316Z,100613.91
2023-02-19T05:38:46.208Z,100618.53
2023-02-19T05:41:14.720Z,100623.53
2023-02-19T05:43:42.222Z,100613.84
2023-02-19T05:46:09.796Z,100632.03
2023-02-19T05:48:36.699Z,100632.41
2023-02-19T05:51:04.601Z,100637.47
2023-02-19T05:53:31.464Z,100627.41
2023-02-19T05:55:58.356Z,100639.97
2023-02-19T05:58:25.439Z,100640.22
2023-02-19T06:00:52.451Z,100631.94
2023-02-19T06:03:19.230Z,100643.66
2023-02-19T06:05:46.035Z,100642.63
2023-02-19T06:08:16.153Z,100646.44
2023-02-19T06:10:43.163Z,100651.03
2023-02-19T06:13:10.287Z,100647.09
2023-02-19T06:15:37.317Z,100648.19
2023-02-19T06:18:04.373Z,100638.75
2023-02-19T06:20:31.182Z,100638.31
2023-02-19T06:22:58.040Z,100655.28
2023-02-19T06:25:24.812Z,100659.25
2023-02-19T06:27:51.628Z,100643.63
2023-02-19T06:30:18.540Z,100660.06
2023-02-19T06:32:45.354Z,100661.59
2023-02-19T06:35:12.144Z,100664.75
2023-02-19T06:37:38.891Z,100668.31
2023-02-19T06:40:06.103Z,100684.09
2023-02-19T06:42:33.359Z,100695.06
2023-02-19T06:45:00.176Z,100687.31
2023-02-19T06:47:26.995Z,100688.13
2023-02-19T06:49:53.843Z,100697.53
2023-02-19T06:52:20.640Z,100684.34
2023-02-19T06:54:47.514Z,100663.84
2023-02-19T06:57:14.301Z,100681.59
2023-02-19T06:59:41.100Z,100676.34
2023-02-19T07:02:09.738Z,100688.47
2023-02-19T07:04:36.519Z,100695.53
2023-02-19T07:07:03.366Z,100698.69
2023-02-19T07:09:30.152Z,100699.19
2023-02-19T07:11:57.039Z,100714.78
2023-02-19T07:14:23.857Z,100700.56
2023-02-19T07:16:51.269Z,100703.59
2023-02-19T07:19:18.120Z,100723.41
2023-02-19T07:21:44.931Z,100710.16
2023-02-19T07:24:11.820Z,100718.56
2023-02-19T07:26:38.680Z,100709.53
2023-02-19T07:29:05.566Z,100714.72
2023-02-19T07:31:32.522Z,100718.75
2023-02-19T07:33:59.373Z,100723.72
2023-02-19T07:36:26.203Z,100720.72
2023-02-19T07:38:56.770Z,100737.50
2023-02-19T07:41:24.499Z,100720.09
2023-02-19T07:43:51.274Z,100725.75
2023-02-19T07:46:18.085Z,100737.31
2023-02-19T07:48:45.018Z,100730.56
2023-02-19T07:51:18.896Z,100750.47
2023-02-19T07:53:46.650Z,100731.78
2023-02-19T07:56:13.522Z,100724.72
2023-02-19T07:58:40.441Z,100741.19
2023-02-19T08:01:12.441Z,100728.31
2023-02-19T08:03:39.537Z,100738.13
2023-02-19T08:06:06.718Z,100737.53
2023-02-19T08:08:33.568Z,100750.44
2023-02-19T08:11:20.552Z,100745.22
2023-02-19T08:13:50.947Z,100766.03
2023-02-19T08:16:29.613Z,100763.00
2023-02-19T08:19:00.289Z,100758.81
2023-02-19T08:21:27.120Z,100771.63
2023-02-19T08:23:53.996Z,100760.38
2023-02-19T08:26:20.768Z,100752.09
2023-02-19T08:28:48.537Z,100757.69
2023-02-19T08:31:15.742Z,100772.03
2023-02-19T08:33:42.653Z,100779.47
2023-02-19T08:36:10.723Z,100784.19
2023-02-19T08:38:37.982Z,100764.63
2023-02-19T08:41:09.142Z,100779.63
2023-02-19T08:43:36.334Z,100786.34
2023-02-19T08:46:03.298Z,100793.06
2023-02-19T08:48:30.366Z,100785.03
2023-02-19T08:51:02.188Z,100775.88
2023-02-19T08:53:28.984Z,100806.59
2023-02-19T08:55:55.805Z,100801.88
2023-02-19T08:58:22.873Z,100806.91
2023-02-19T09:00:49.657Z,100808.84
2023-02-19T09:03:16.476Z,100807.56
2023-02-19T09:05:43.321Z,100802.72
2023-02-19T09:08:10.132Z,100818.84
2023-02-19T09:10:36.975Z,100809.34
2023-02-19T09:13:03.881Z,100820.66
2023-02-19T09:15:30.815Z,100821.81
2023-02-19T09:17:57.658Z,100806.75
2023-02-19T09:20:24.550Z,100812.41
2023-02-19T09:22:56.220Z,100799.44
2023-02-19T09:25:23.165Z,100810.22
2023-02-19T09:27:49.966Z,100799.72
2023-02-19T09:30:16.847Z,100792.66
2023-02-19T09:32:43.725Z,100807.75
2023-02-19T09:35:10.514Z,100805.97
2023-02-19T09:37:37.324Z,100802.69
2023-02-19T09:40:04.278Z,100819.13
2023-02-19T09:42:31.477Z,100823.94
2023-02-19T09:44:59.316Z,100813.38
2023-02-19T09:47:27.980Z,100818.44
2023-02-19T09:50:03.205Z,100819.50
2023-02-19T09:52:41.006Z,100826.59
2023-02-19T09:55:31.304Z,100814.72
2023-02-19T09:57:59.357Z,100807.34
2023-02-19T10:00:30.264Z,100813.75
2023-02-19T10:03:07.777Z,100819.88
2023-02-19T10:05:34.585Z,100814.56
2023-02-19T10:08:01.372Z,100821.09
2023-02-19T10:10:32.829Z,100827.03
2023-02-19T10:13:20.642Z,100849.56
2023-02-19T10:15:52.211Z,100834.97
2023-02-19T10:18:41.384Z,100838.66
2023-02-19T10:21:10.823Z,100841.16
2023-02-19T10:23:37.790Z,100829.41
2023-02-19T10:26:04.741Z,100826.59
2023-02-19T10:28:34.648Z,100857.16
2023-02-19T10:31:03.028Z,100845.56
2023-02-19T10:33:30.038Z,100855.94
2023-02-19T10:36:05.873Z,100860.88
2023-02-19T10:38:34.197Z,100862.84
2023-02-19T10:41:08.987Z,100867.34
2023-02-19T10:43:37.328Z,100866.44
2023-02-19T10:46:29.633Z,100875.50
2023-02-19T10:48:57.976Z,100873.09
2023-02-19T10:51:51.200Z,100880.75
2023-02-19T10:54:25.712Z,100871.38
2023-02-19T10:56:52.523Z,100887.53
2023-02-19T10:59:19.273Z,100867.50
2023-02-19T11:02:02.009Z,100872.78
2023-02-19T11:04:38.195Z,100870.03
2023-02-19T11:07:13.508Z,100862.94
2023-02-19T11:09:52.926Z,100864.72
2023-02-19T11:12:30.147Z,100876.16
2023-02-19T11:14:57.149Z,100872.25
2023-02-19T11:17:28.474Z,100874.41
2023-02-19T11:19:59.055Z,100889.72
2023-02-19T11:22:32.098Z,100890.47
2023-02-19T11:25:25.820Z,100900.06
2023-02-19T11:28:37.936Z,100902.50
2023-02-19T11:31:24.344Z,100895.22
2023-02-19T11:34:14.070Z,100903.72
2023-02-19T11:36:41.318Z,100899.81
2023-02-19T11:39:17.244Z,100915.56
2023-02-19T11:42:02.667Z,100921.31
2023-02-19T11:44:43.944Z,100919.44
2023-02-19T11:47:33.083Z,100927.06
2023-02-19T11:50:18.115Z,100937.75
2023-02-19T11:53:20.454Z,100928.75
2023-02-19T11:55:47.213Z,100928.59
2023-02-19T11:58:51.439Z,100929.91
2023-02-19T12:01:55.499Z,100926.34
2023-02-19T12:04:31.199Z,100934.41
2023-02-19T12:07:30.204Z,100933.13
2023-02-19T12:10:02.785Z,100929.09
2023-02-19T12:12:41.858Z,100929.56
2023-02-19T12:15:17.070Z,100929.88
2023-02-19T12:17:48.264Z,100940.75
2023-02-19T12:20:52.481Z,100944.53
2023-02-19T12:23:56.495Z,100961.19
2023-02-19T12:26:41.934Z,100964.09
2023-02-19T12:29:30.016Z,100972.69
2023-02-19T12:32:29.139Z,100975.78
2023-02-19T12:35:24.881Z,100959.81
2023-02-19T12:38:11.734Z,100958.94
2023-02-19T12:40:50.540Z,100972.19
2023-02-19T12:43:23.776Z,100978.72
2023-02-19T12:46:09.228Z,100975.09
2023-02-19T12:48:39.240Z,100969.22
2023-02-19T12:51:25.307Z,100967.03
2023-02-19T12:53:57.946Z,100952.06
2023-02-19T12:56:43.406Z,100974.53
2023-02-19T12:59:18.604Z,100983.00
2023-02-19T13:01:49.123Z,100978.31
2023-02-19T13:04:34.389Z,100981.50
2023-02-19T13:07:07.496Z,100989.03
2023-02-19T13:09:57.080Z,100985.63
2023-02-19T13:12:26.589Z,100985.47
2023-02-19T13:15:16.397Z,100994.63
2023-02-19T13:17:49.275Z,100990.03
2023-02-19T13:20:35.581Z,100995.13
2023-02-19T13:23:42.758Z,100992.63
2023-02-19T13:26:32.092Z,101011.16
2023-02-19T13:29:23.331Z,101000.97
2023-02-19T13:31:53.239Z,101000.41
2023-02-19T13:34:29.036Z,101016.13
2023-02-19T13:36:55.808Z,101008.81
2023-02-19T13:39:22.612Z,101005.88
2023-02-19T13:41:50.938Z,101022.31
2023-02-19T13:44:23.176Z,101014.69
2023-02-19T13:46:50.322Z,101031.56
2023-02-19T13:49:23.319Z,101046.19
2023-02-19T13:51:56.958Z,101031.41
2023-02-19T13:54:23.713Z,101052.56
2023-02-19T13:56:50.896Z,101057.22
2023-02-19T13:59:37.730Z,101063.59
2023-02-19T14:02:04.460Z,101065.91
2023-02-19T14:04:43.740Z,101065.59
2023-02-19T14:07:10.430Z,101071.72
2023-02-19T14:09:37.330Z,101080.34
2023-02-19T14:12:04.218Z,101079.88
2023-02-19T14:14:55.773Z,101089.72
2023-02-19T14:17:45.779Z,101102.38
2023-02-19T14:20:15.306Z,101099.38
2023-02-19T14:22:49.019Z,101101.81
2023-02-19T14:25:38.522Z,101120.50
2023-02-19T14:28:17.252Z,101120.94
2023-02-19T14:31:21.890Z,101122.75
2023-02-19T14:33:50.591Z,101113.22
2023-02-19T14:36:39.155Z,101119.41
2023-02-19T14:39:14.011Z,101114.44
2023-02-19T14:41:42.431Z,101113.50
2023-02-19T14:44:25.859Z,101119.56
2023-02-19T14:46:58.644Z,101119.91
2023-02-19T14:49:31.818Z,101127.09
2023-02-19T14:52:00.606Z,101123.16
2023-02-19T14:55:01.650Z,101129.41
2023-02-19T14:57:33.789Z,101134.59
2023-02-19T15:00:03.201Z,101140.59
2023-02-19T15:02:31.107Z,101136.81
2023-02-19T15:04:58.078Z,101152.50
2023-02-19T15:07:30.079Z,101152.56
2023-02-19T15:10:02.919Z,101155.75
2023-02-19T15:12:58.176Z,101158.81
2023-02-19T15:15:28.299Z,101175.81
2023-02-19T15:17:55.496Z,101167.88
2023-02-19T15:20:33.030Z,101176.78
2023-02-19T15:23:00.032Z,101175.69
2023-02-19T15:25:33.833Z,101163.66
2023-02-19T15:28:37.238Z,101186.91
2023-02-19T15:31:07.825Z,101188.00
2023-02-19T15:33:34.974Z,101195.34
2023-02-19T15:36:06.020Z,101195.13
2023-02-19T15:38:33.622Z,101187.50
2023-02-19T15:41:00.835Z,101208.47
2023-02-19T15:43:53.918Z,101215.09
2023-02-19T15:46:25.055Z,101197.81
2023-02-19T15:49:01.880Z,101215.22
2023-02-19T15:51:58.582Z,101204.88
2023-02-19T15:54:28.597Z,101217.34
2023-02-19T15:56:57.125Z,101218.78
2023-02-19T15:59:29.836Z,101212.81
2023-02-19T16:01:56.888Z,101210.44
2023-02-19T16:04:23.837Z,101221.47
2023-02-19T16:07:01.420Z,101228.56
2023-02-19T16:09:33.742Z,101223.81
2023-02-19T16:12:01.361Z,101227.72
2023-02-19T16:14:32.973Z,101215.09
2023-02-19T16:17:11.990Z,101240.81
2023-02-19T16:20:00.689Z,101236.72
2023-02-19T16:22:29.820Z,101240.66
2023-02-19T16:24:58.594Z,101250.31
2023-02-19T16:27:29.324Z,101262.56
2023-02-19T16:29:56.209Z,101273.09
2023-02-19T16:32:23.067Z,101282.75
2023-02-19T16:34:50.966Z,101279.78
2023-02-19T16:37:29.682Z,101293.16
2023-02-19T16:40:08.678Z,101295.75
2023-02-19T16:43:09.981Z,101282.91
2023-02-19T16:45:36.863Z,101275.59
2023-02-19T16:48:04.367Z,101275.69
2023-02-19T16:50:31.248Z,101274.19
2023-02-19T16:53:02.281Z,101274.47
2023-02-19T16:55:29.561Z,101285.88
2023-02-19T16:57:56.364Z,101282.38
2023-02-19T17:00:24.923Z,101281.97
2023-02-19T17:02:56.494Z,101285.63
2023-02-19T17:05:23.621Z,101293.44
2023-02-19T17:07:50.450Z,101288.44
2023-02-19T17:10:23.078Z,101289.41
2023-02-19T17:12:50.844Z,101295.72
2023-02-19T17:15:18.200Z,101278.66
2023-02-19T17:17:45.195Z,101274.66
2023-02-19T17:20:18.123Z,101289.16
2023-02-19T17:22:45.020Z,101276.78
2023-02-19T17:25:11.939Z,101282.97
2023-02-19T17:27:38.778Z,101273.81
2023-02-19T17:30:28.425Z,101289.31
2023-02-19T17:32:55.423Z,101284.47
2023-02-19T17:35:22.295Z,101275.25
2023-02-19T17:37:49.635Z,101272.31
2023-02-19T17:40:33.594Z,101290.25
2023-02-19T17:43:01.192Z,101283.75
2023-02-19T17:45:28.140Z,101292.41
2023-02-19T17:47:54.951Z,101288.63
2023-02-19T17:50:24.572Z,101292.94
2023-02-19T17:52:51.476Z,101288.25
2023-02-19T17:55:18.537Z,101286.72
2023-02-19T17:57:48.762Z,101292.91
2023-02-19T18:00:20.457Z,101293.75
2023-02-19T18:02:47.384Z,101284.00
2023-02-19T18:05:14.214Z,101297.50
2023-02-19T18:07:41.289Z,101299.88
2023-02-19T18:10:08.517Z,101298.16
2023-02-19T18:12:35.394Z,101290.44
2023-02-19T18:15:02.356Z,101298.66
2023-02-19T18:17:29.217Z,101292.22
2023-02-19T18:19:56.116Z,101303.13
2023-02-19T18:22:22.973Z,101296.44
2023-02-19T18:24:50.867Z,101297.25
2023-02-19T18:27:19.297Z,101290.56
2023-02-19T18:29:51.860Z,101296.56
2023-02-19T18:32:19.817Z,101284.56
2023-02-19T18:34:50.845Z,101297.13
2023-02-19T18:37:17.738Z,101287.78
2023-02-19T18:39:44.901Z,101294.19
2023-02-19T18:42:12.527Z,101297.44
2023-02-19T18:44:39.404Z,101277.97
2023-02-19T18:47:06.799Z,101286.31
2023-02-19T18:49:33.656Z,101278.72
2023-02-19T18:52:01.476Z,101275.31
2023-02-19T18:54:29.296Z,101282.09
2023-02-19T18:56:56.200Z,101285.69
2023-02-19T18:59:23.178Z,101287.88
2023-02-19T19:01:50.915Z,101274.88
2023-02-19T19:04:17.927Z,101271.53
2023-02-19T19:06:44.820Z,101280.13
2023-02-19T19:09:11.772Z,101280.59
2023-02-19T19:11:38.645Z,101277.03
2023-02-19T19:14:05.588Z,101279.94
2023-02-19T19:16:32.824Z,101277.75
2023-02-19T19:18:59.687Z,101280.09
2023-02-19T19:21:26.545Z,101281.09
2023-02-19T19:23:53.383Z,101268.69
2023-02-19T19:26:20.388Z,101266.47
2023-02-19T19:28:47.411Z,101262.75
2023-02-19T19:31:15.604Z,101265.31
2023-02-19T19:33:43.116Z,101255.78
2023-02-19T19:36:10.751Z,101249.78
2023-02-19T19:38:37.828Z,101258.13
2023-02-19T19:41:05.152Z,101244.94
2023-02-19T19:43:32.673Z,101255.78
2023-02-19T19:45:59.547Z,101264.31
2023-02-19T19:48:29.237Z,101249.69
2023-02-19T19:50:57.185Z,101261.91
2023-02-19T19:53:24.354Z,101262.34
2023-02-19T19:55:51.149Z,101250.59
2023-02-19T19:58:20.997Z,101250.88
2023-02-19T20:00:47.806Z,101224.72
2023-02-19T20:03:14.605Z,101254.63
2023-02-19T20:05:41.412Z,101251.63
2023-02-19T20:08:08.191Z,101265.75
2023-02-19T20:10:34.986Z,101268.13
2023-02-19T20:13:01.885Z,101264.66
2023-02-19T20:15:28.649Z,101249.94
2023-02-19T20:17:55.505Z,101243.19
2023-02-19T20:20:22.817Z,101221.81
2023-02-19T20:22:51.847Z,101248.78
2023-02-19T20:25:20.061Z,101234.41
2023-02-19T20:27:50.354Z,101224.97
2023-02-19T20:30:17.903Z,101234.09
2023-02-19T20:32:44.718Z,101227.31
2023-02-19T20:35:11.619Z,101207.25
2023-02-19T20:37:39.245Z,101219.47
2023-02-19T20:40:06.981Z,101205.94
2023-02-19T20:42:33.830Z,101205.09
2023-02-19T20:45:00.706Z,101199.59
2023-02-19T20:47:28.204Z,101216.72
2023-02-19T20:49:55.122Z,101210.63
2023-02-19T20:52:21.917Z,101197.88
2023-02-19T20:54:48.713Z,101196.78
2023-02-19T20:57:15.485Z,101184.41
2023-02-19T20:59:44.372Z,101200.44
2023-02-19T21:02:19.668Z,101210.34
2023-02-19T21:04:46.660Z,101207.53
2023-02-19T21:07:13.448Z,101220.59
2023-02-19T21:09:40.290Z,101211.44
2023-02-19T21:12:07.275Z,101229.53
2023-02-19T21:14:34.123Z,101231.66
2023-02-19T21:17:00.962Z,101221.41
2023-02-19T21:19:27.833Z,101210.22
2023-02-19T21:21:54.653Z,101233.75
2023-02-19T21:24:21.527Z,101214.78
2023-02-19T21:26:48.403Z,101208.28
2023-02-19T21:29:20.154Z,101210.72
2023-02-19T21:31:49.337Z,101212.38
2023-02-19T21:34:17.928Z,101224.88
2023-02-19T21:36:44.777Z,101225.81
2023-02-19T21:39:14.358Z,101222.63
2023-02-19T21:41:41.236Z,101210.72
2023-02-19T21:44:08.049Z,101222.38
2023-02-19T21:46:34.894Z,101218.97
2023-02-19T21:49:01.969Z,101237.38
2023-02-19T21:51:33.944Z,101222.00
2023-02-19T21:54:00.764Z,101206.91
2023-02-19T21:56:29.109Z,101218.41
2023-02-19T21:58:56.122Z,101229.25
2023-02-19T22:01:24.195Z,101220.00
2023-02-19T22:03:51.102Z,101220.72
2023-02-19T22:06:17.959Z,101219.91
2023-02-19T22:08:45.012Z,101234.09
2023-02-19T22:11:11.818Z,101221.22
2023-02-19T22:13:39.778Z,101227.16
2023-02-19T22:16:06.803Z,101214.38
2023-02-19T22:18:33.617Z,101216.13
2023-02-19T22:21:00.609Z,101221.88
2023-02-19T22:23:27.423Z,101222.16
2023-02-19T22:25:54.239Z,101237.25
2023-02-19T22:28:21.031Z,101223.16
2023-02-19T22:30:47.941Z,101237.25
2023-02-19T22:33:14.732Z,101221.59
2023-02-19T22:35:41.714Z,101234.16
2023-02-19T22:38:08.482Z,101213.22
2023-02-19T22:40:35.315Z,101238.44
2023-02-19T22:43:02.085Z,101241.88
2023-02-19T22:45:28.863Z,101236.88
2023-02-19T22:47:56.143Z,101247.59
2023-02-19T22:50:23.214Z,101242.88
2023-02-19T22:52:50.442Z,101250.03
2023-02-19T22:55:18.224Z,101242.81
2023-02-19T22:57:44.999Z,101230.69
2023-02-19T23:00:20.911Z,101235.69
2023-02-19T23:02:48.753Z,101249.31
2023-02-19T23:05:16.358Z,101242.69
2023-02-19T23:07:44.472Z,101244.38
2023-02-19T23:10:12.227Z,101246.59
2023-02-19T23:12:39.333Z,101242.34
2023-02-19T23:15:06.677Z,101254.28
2023-02-19T23:17:33.465Z,101257.81
2023-02-19T23:20:01.490Z,101248.44
2023-02-19T23:22:28.587Z,101239.19
2023-02-19T23:24:55.417Z,101242.69
2023-02-19T23:27:24.283Z,101242.53
2023-02-19T23:29:51.131Z,101239.19
2023-02-19T23:32:21.016Z,101256.69
2023-02-19T23:34:48.364Z,101240.00
2023-02-19T23:37:15.195Z,101251.50
2023-02-19T23:39:42.005Z,101239.09
2023-02-19T23:42:12.352Z,101252.34
2023-02-19T23:44:39.635Z,101255.13
2023-02-19T23:47:06.405Z,101246.78
2023-02-19T23:49:33.179Z,101237.63
2023-02-19T23:51:59.962Z,101248.00
2023-02-19T23:54:26.720Z,101247.22
2023-02-19T23:56:53.508Z,101242.97
2023-02-19T23:59:20.271Z,101243.06
